sensor_id;sensor_type;location;lat;lon;timestamp;P1;durP1;ratioP1;P2;durP2;ratioP2
63320;SDS011;49449;48.800;9.534;2023-10-19T00:03:00;9.50;;;8.38;;
63320;SDS011;49449;48.800;9.534;2023-10-19T00:05:29;10.63;;;9.18;;
63320;SDS011;49449;48.800;9.534;2023-10-19T00:07:58;11.25;;;8.88;;
63320;SDS011;49449;48.800;9.534;2023-10-19T00:10:30;11.00;;;9.65;;
63320;SDS011;49449;48.800;9.534;2023-10-19T00:13:01;9.98;;;8.98;;
63320;SDS011;49449;48.800;9.534;2023-10-19T00:15:30;10.95;;;9.85;;
63320;SDS011;49449;48.800;9.534;2023-10-19T00:17:59;9.70;;;8.20;;
63320;SDS011;49449;48.800;9.534;2023-10-19T00:20:39;9.40;;;7.80;;
63320;SDS011;49449;48.800;9.534;2023-10-19T00:23:17;10.90;;;9.80;;
63320;SDS011;49449;48.800;9.534;2023-10-19T00:25:52;9.13;;;8.18;;
63320;SDS011;49449;48.800;9.534;2023-10-19T00:28:20;10.38;;;8.80;;
63320;SDS011;49449;48.800;9.534;2023-10-19T00:30:52;10.00;;;7.63;;
63320;SDS011;49449;48.800;9.534;2023-10-19T00:33:26;8.65;;;7.72;;
63320;SDS011;49449;48.800;9.534;2023-10-19T00:35:54;11.07;;;8.82;;
63320;SDS011;49449;48.800;9.534;2023-10-19T00:38:27;11.32;;;9.10;;
63320;SDS011;49449;48.800;9.534;2023-10-19T00:41:07;11.65;;;9.55;;
63320;SDS011;49449;48.800;9.534;2023-10-19T00:43:40;10.48;;;9.38;;
63320;SDS011;49449;48.800;9.534;2023-10-19T00:46:10;9.55;;;8.30;;
63320;SDS011;49449;48.800;9.534;2023-10-19T00:48:50;12.50;;;9.32;;
63320;SDS011;49449;48.800;9.534;2023-10-19T00:51:20;12.18;;;9.20;;
63320;SDS011;49449;48.800;9.534;2023-10-19T00:54:07;10.05;;;8.60;;
63320;SDS011;49449;48.800;9.534;2023-10-19T00:56:42;10.05;;;8.18;;
63320;SDS011;49449;48.800;9.534;2023-10-19T00:59:15;11.00;;;8.93;;
63320;SDS011;49449;48.800;9.534;2023-10-19T01:01:49;10.20;;;8.38;;
63320;SDS011;49449;48.800;9.534;2023-10-19T01:04:20;9.90;;;8.48;;
63320;SDS011;49449;48.800;9.534;2023-10-19T01:06:49;8.68;;;7.22;;
63320;SDS011;49449;48.800;9.534;2023-10-19T01:09:27;9.93;;;8.35;;
63320;SDS011;49449;48.800;9.534;2023-10-19T01:11:56;9.10;;;7.78;;
63320;SDS011;49449;48.800;9.534;2023-10-19T01:14:28;8.85;;;7.05;;
63320;SDS011;49449;48.800;9.534;2023-10-19T01:16:58;8.75;;;7.78;;
63320;SDS011;49449;48.800;9.534;2023-10-19T01:19:27;8.48;;;7.07;;
63320;SDS011;49449;48.800;9.534;2023-10-19T01:21:55;7.70;;;6.90;;
63320;SDS011;49449;48.800;9.534;2023-10-19T01:24:30;11.10;;;7.32;;
63320;SDS011;49449;48.800;9.534;2023-10-19T01:27:06;8.00;;;7.03;;
63320;SDS011;49449;48.800;9.534;2023-10-19T01:29:36;8.75;;;7.68;;
63320;SDS011;49449;48.800;9.534;2023-10-19T01:32:07;8.73;;;6.72;;
63320;SDS011;49449;48.800;9.534;2023-10-19T01:34:35;8.63;;;7.30;;
63320;SDS011;49449;48.800;9.534;2023-10-19T01:37:03;9.23;;;8.25;;
63320;SDS011;49449;48.800;9.534;2023-10-19T01:39:33;10.40;;;8.82;;
63320;SDS011;49449;48.800;9.534;2023-10-19T01:42:02;9.18;;;7.82;;
63320;SDS011;49449;48.800;9.534;2023-10-19T01:44:31;9.35;;;8.23;;
63320;SDS011;49449;48.800;9.534;2023-10-19T01:46:59;9.38;;;7.70;;
63320;SDS011;49449;48.800;9.534;2023-10-19T01:49:28;9.40;;;8.50;;
63320;SDS011;49449;48.800;9.534;2023-10-19T01:51:55;8.93;;;7.55;;
63320;SDS011;49449;48.800;9.534;2023-10-19T01:54:23;13.52;;;9.65;;
63320;SDS011;49449;48.800;9.534;2023-10-19T01:56:53;9.95;;;8.38;;
63320;SDS011;49449;48.800;9.534;2023-10-19T01:59:23;8.77;;;7.30;;
63320;SDS011;49449;48.800;9.534;2023-10-19T02:01:53;9.13;;;7.75;;
63320;SDS011;49449;48.800;9.534;2023-10-19T02:04:21;9.45;;;8.40;;
63320;SDS011;49449;48.800;9.534;2023-10-19T02:06:48;9.65;;;8.15;;
63320;SDS011;49449;48.800;9.534;2023-10-19T02:09:18;9.15;;;7.85;;
63320;SDS011;49449;48.800;9.534;2023-10-19T02:11:49;8.63;;;7.63;;
63320;SDS011;49449;48.800;9.534;2023-10-19T02:14:20;7.95;;;7.15;;
63320;SDS011;49449;48.800;9.534;2023-10-19T02:16:47;7.82;;;6.55;;
63320;SDS011;49449;48.800;9.534;2023-10-19T02:19:18;6.85;;;6.15;;
63320;SDS011;49449;48.800;9.534;2023-10-19T02:21:47;6.85;;;5.78;;
63320;SDS011;49449;48.800;9.534;2023-10-19T02:24:15;7.50;;;6.35;;
63320;SDS011;49449;48.800;9.534;2023-10-19T02:26:42;8.02;;;6.38;;
63320;SDS011;49449;48.800;9.534;2023-10-19T02:29:13;7.65;;;6.30;;
63320;SDS011;49449;48.800;9.534;2023-10-19T02:31:42;7.70;;;6.45;;
63320;SDS011;49449;48.800;9.534;2023-10-19T02:34:10;7.47;;;6.43;;
63320;SDS011;49449;48.800;9.534;2023-10-19T02:36:38;8.60;;;7.18;;
63320;SDS011;49449;48.800;9.534;2023-10-19T02:39:06;7.70;;;6.82;;
63320;SDS011;49449;48.800;9.534;2023-10-19T02:41:37;7.50;;;6.72;;
63320;SDS011;49449;48.800;9.534;2023-10-19T02:44:04;9.65;;;7.22;;
63320;SDS011;49449;48.800;9.534;2023-10-19T02:46:36;7.25;;;6.38;;
63320;SDS011;49449;48.800;9.534;2023-10-19T02:49:06;7.57;;;6.70;;
63320;SDS011;49449;48.800;9.534;2023-10-19T02:51:38;7.50;;;6.70;;
63320;SDS011;49449;48.800;9.534;2023-10-19T02:54:07;7.40;;;6.60;;
63320;SDS011;49449;48.800;9.534;2023-10-19T02:56:34;7.60;;;6.32;;
63320;SDS011;49449;48.800;9.534;2023-10-19T02:59:05;8.10;;;6.65;;
63320;SDS011;49449;48.800;9.534;2023-10-19T03:01:32;7.47;;;6.50;;
63320;SDS011;49449;48.800;9.534;2023-10-19T03:04:01;9.65;;;7.57;;
63320;SDS011;49449;48.800;9.534;2023-10-19T03:06:32;9.85;;;8.27;;
63320;SDS011;49449;48.800;9.534;2023-10-19T03:09:00;9.07;;;7.25;;
63320;SDS011;49449;48.800;9.534;2023-10-19T03:11:39;7.95;;;6.82;;
63320;SDS011;49449;48.800;9.534;2023-10-19T03:14:07;8.93;;;7.00;;
63320;SDS011;49449;48.800;9.534;2023-10-19T03:16:35;7.95;;;6.72;;
63320;SDS011;49449;48.800;9.534;2023-10-19T03:19:02;7.97;;;7.18;;
63320;SDS011;49449;48.800;9.534;2023-10-19T03:21:32;8.50;;;6.22;;
63320;SDS011;49449;48.800;9.534;2023-10-19T03:24:00;7.07;;;6.30;;
63320;SDS011;49449;48.800;9.534;2023-10-19T03:26:38;7.65;;;6.75;;
63320;SDS011;49449;48.800;9.534;2023-10-19T03:29:09;7.43;;;6.63;;
63320;SDS011;49449;48.800;9.534;2023-10-19T03:31:40;7.75;;;6.82;;
63320;SDS011;49449;48.800;9.534;2023-10-19T03:34:11;7.57;;;6.13;;
63320;SDS011;49449;48.800;9.534;2023-10-19T03:36:41;7.32;;;6.45;;
63320;SDS011;49449;48.800;9.534;2023-10-19T03:39:10;7.40;;;6.35;;
63320;SDS011;49449;48.800;9.534;2023-10-19T03:41:41;8.43;;;7.53;;
63320;SDS011;49449;48.800;9.534;2023-10-19T03:44:10;8.57;;;7.68;;
63320;SDS011;49449;48.800;9.534;2023-10-19T03:46:45;9.43;;;7.03;;
63320;SDS011;49449;48.800;9.534;2023-10-19T03:49:22;8.95;;;7.25;;
63320;SDS011;49449;48.800;9.534;2023-10-19T03:51:54;9.25;;;7.88;;
63320;SDS011;49449;48.800;9.534;2023-10-19T03:54:46;9.35;;;7.97;;
63320;SDS011;49449;48.800;9.534;2023-10-19T03:57:15;9.70;;;7.70;;
63320;SDS011;49449;48.800;9.534;2023-10-19T03:59:47;8.77;;;7.53;;
63320;SDS011;49449;48.800;9.534;2023-10-19T04:02:16;7.63;;;6.82;;
63320;SDS011;49449;48.800;9.534;2023-10-19T04:04:47;8.32;;;6.80;;
63320;SDS011;49449;48.800;9.534;2023-10-19T04:07:17;9.45;;;6.55;;
63320;SDS011;49449;48.800;9.534;2023-10-19T04:09:48;7.32;;;6.28;;
63320;SDS011;49449;48.800;9.534;2023-10-19T04:12:26;7.78;;;6.43;;
63320;SDS011;49449;48.800;9.534;2023-10-19T04:14:57;7.53;;;6.57;;
63320;SDS011;49449;48.800;9.534;2023-10-19T04:17:30;8.50;;;6.75;;
63320;SDS011;49449;48.800;9.534;2023-10-19T04:20:00;7.95;;;6.63;;
63320;SDS011;49449;48.800;9.534;2023-10-19T04:22:36;8.45;;;6.72;;
63320;SDS011;49449;48.800;9.534;2023-10-19T04:25:05;8.10;;;7.30;;
63320;SDS011;49449;48.800;9.534;2023-10-19T04:27:34;8.55;;;7.65;;
63320;SDS011;49449;48.800;9.534;2023-10-19T04:30:03;7.68;;;6.72;;
63320;SDS011;49449;48.800;9.534;2023-10-19T04:32:41;8.52;;;6.60;;
63320;SDS011;49449;48.800;9.534;2023-10-19T04:35:10;7.65;;;6.85;;
63320;SDS011;49449;48.800;9.534;2023-10-19T04:37:41;6.82;;;5.90;;
63320;SDS011;49449;48.800;9.534;2023-10-19T04:40:10;9.32;;;7.45;;
63320;SDS011;49449;48.800;9.534;2023-10-19T04:42:39;8.95;;;7.32;;
63320;SDS011;49449;48.800;9.534;2023-10-19T04:45:07;9.20;;;7.50;;
63320;SDS011;49449;48.800;9.534;2023-10-19T04:47:35;9.63;;;7.40;;
63320;SDS011;49449;48.800;9.534;2023-10-19T04:50:03;8.57;;;7.15;;
63320;SDS011;49449;48.800;9.534;2023-10-19T04:52:32;10.07;;;7.25;;
63320;SDS011;49449;48.800;9.534;2023-10-19T04:55:02;11.68;;;8.55;;
63320;SDS011;49449;48.800;9.534;2023-10-19T04:57:30;9.82;;;8.65;;
63320;SDS011;49449;48.800;9.534;2023-10-19T04:59:58;10.88;;;8.10;;
63320;SDS011;49449;48.800;9.534;2023-10-19T05:02:26;13.98;;;7.75;;
63320;SDS011;49449;48.800;9.534;2023-10-19T05:04:54;11.20;;;8.45;;
63320;SDS011;49449;48.800;9.534;2023-10-19T05:07:22;16.05;;;8.18;;
63320;SDS011;49449;48.800;9.534;2023-10-19T05:09:50;12.98;;;9.18;;
63320;SDS011;49449;48.800;9.534;2023-10-19T05:12:21;12.50;;;8.38;;
63320;SDS011;49449;48.800;9.534;2023-10-19T05:14:49;9.50;;;7.97;;
63320;SDS011;49449;48.800;9.534;2023-10-19T05:17:16;9.93;;;7.13;;
63320;SDS011;49449;48.800;9.534;2023-10-19T05:19:47;11.18;;;7.20;;
63320;SDS011;49449;48.800;9.534;2023-10-19T05:22:16;20.45;;;9.73;;
63320;SDS011;49449;48.800;9.534;2023-10-19T05:24:44;11.27;;;8.98;;
63320;SDS011;49449;48.800;9.534;2023-10-19T05:27:12;14.90;;;9.57;;
63320;SDS011;49449;48.800;9.534;2023-10-19T05:29:42;10.27;;;7.97;;
63320;SDS011;49449;48.800;9.534;2023-10-19T05:32:10;13.18;;;8.52;;
63320;SDS011;49449;48.800;9.534;2023-10-19T05:34:38;9.77;;;7.75;;
63320;SDS011;49449;48.800;9.534;2023-10-19T05:37:05;23.00;;;8.25;;
63320;SDS011;49449;48.800;9.534;2023-10-19T05:39:35;9.95;;;7.32;;
63320;SDS011;49449;48.800;9.534;2023-10-19T05:42:03;16.55;;;7.32;;
63320;SDS011;49449;48.800;9.534;2023-10-19T05:44:32;16.15;;;7.47;;
63320;SDS011;49449;48.800;9.534;2023-10-19T05:47:02;12.00;;;8.52;;
63320;SDS011;49449;48.800;9.534;2023-10-19T05:49:30;11.18;;;8.45;;
63320;SDS011;49449;48.800;9.534;2023-10-19T05:52:00;15.73;;;8.82;;
63320;SDS011;49449;48.800;9.534;2023-10-19T05:54:29;11.75;;;7.45;;
63320;SDS011;49449;48.800;9.534;2023-10-19T05:56:57;14.77;;;8.27;;
63320;SDS011;49449;48.800;9.534;2023-10-19T05:59:25;14.25;;;8.18;;
63320;SDS011;49449;48.800;9.534;2023-10-19T06:01:55;10.35;;;8.27;;
63320;SDS011;49449;48.800;9.534;2023-10-19T06:04:24;19.25;;;8.38;;
63320;SDS011;49449;48.800;9.534;2023-10-19T06:06:52;14.15;;;9.10;;
63320;SDS011;49449;48.800;9.534;2023-10-19T06:09:20;11.43;;;8.07;;
63320;SDS011;49449;48.800;9.534;2023-10-19T06:11:55;17.65;;;7.43;;
63320;SDS011;49449;48.800;9.534;2023-10-19T06:14:23;11.63;;;7.50;;
63320;SDS011;49449;48.800;9.534;2023-10-19T06:16:51;11.13;;;8.23;;
63320;SDS011;49449;48.800;9.534;2023-10-19T06:19:19;12.77;;;8.02;;
63320;SDS011;49449;48.800;9.534;2023-10-19T06:21:48;9.23;;;7.38;;
63320;SDS011;49449;48.800;9.534;2023-10-19T06:24:17;11.68;;;7.32;;
63320;SDS011;49449;48.800;9.534;2023-10-19T06:26:45;8.88;;;7.25;;
63320;SDS011;49449;48.800;9.534;2023-10-19T06:29:13;10.70;;;7.10;;
63320;SDS011;49449;48.800;9.534;2023-10-19T06:31:41;9.15;;;7.15;;
63320;SDS011;49449;48.800;9.534;2023-10-19T06:34:09;9.63;;;7.00;;
63320;SDS011;49449;48.800;9.534;2023-10-19T06:36:37;11.65;;;6.80;;
63320;SDS011;49449;48.800;9.534;2023-10-19T06:39:07;7.43;;;6.63;;
63320;SDS011;49449;48.800;9.534;2023-10-19T06:41:35;7.85;;;6.57;;
63320;SDS011;49449;48.800;9.534;2023-10-19T06:44:02;9.30;;;6.25;;
63320;SDS011;49449;48.800;9.534;2023-10-19T06:46:31;7.97;;;6.82;;
63320;SDS011;49449;48.800;9.534;2023-10-19T06:48:58;10.20;;;7.82;;
63320;SDS011;49449;48.800;9.534;2023-10-19T06:51:26;7.68;;;6.78;;
63320;SDS011;49449;48.800;9.534;2023-10-19T06:53:55;7.80;;;6.70;;
63320;SDS011;49449;48.800;9.534;2023-10-19T06:56:25;8.60;;;6.97;;
63320;SDS011;49449;48.800;9.534;2023-10-19T06:58:53;9.38;;;7.78;;
63320;SDS011;49449;48.800;9.534;2023-10-19T07:01:21;9.18;;;7.50;;
63320;SDS011;49449;48.800;9.534;2023-10-19T07:03:52;10.65;;;8.15;;
63320;SDS011;49449;48.800;9.534;2023-10-19T07:06:20;10.07;;;7.75;;
63320;SDS011;49449;48.800;9.534;2023-10-19T07:08:48;9.77;;;8.48;;
63320;SDS011;49449;48.800;9.534;2023-10-19T07:11:16;9.50;;;7.97;;
63320;SDS011;49449;48.800;9.534;2023-10-19T07:13:45;10.27;;;8.13;;
63320;SDS011;49449;48.800;9.534;2023-10-19T07:16:13;10.75;;;8.18;;
63320;SDS011;49449;48.800;9.534;2023-10-19T07:18:41;10.75;;;8.00;;
63320;SDS011;49449;48.800;9.534;2023-10-19T07:21:09;8.65;;;7.63;;
63320;SDS011;49449;48.800;9.534;2023-10-19T07:23:38;9.50;;;8.00;;
63320;SDS011;49449;48.800;9.534;2023-10-19T07:26:06;13.00;;;9.75;;
63320;SDS011;49449;48.800;9.534;2023-10-19T07:28:35;12.43;;;10.30;;
63320;SDS011;49449;48.800;9.534;2023-10-19T07:31:06;10.73;;;8.75;;
63320;SDS011;49449;48.800;9.534;2023-10-19T07:33:39;10.50;;;8.82;;
63320;SDS011;49449;48.800;9.534;2023-10-19T07:36:12;9.00;;;8.10;;
63320;SDS011;49449;48.800;9.534;2023-10-19T07:38:41;10.65;;;8.98;;
63320;SDS011;49449;48.800;9.534;2023-10-19T07:41:08;9.77;;;7.97;;
63320;SDS011;49449;48.800;9.534;2023-10-19T07:43:37;9.57;;;8.57;;
63320;SDS011;49449;48.800;9.534;2023-10-19T07:46:06;9.00;;;7.97;;
63320;SDS011;49449;48.800;9.534;2023-10-19T07:48:35;9.43;;;8.52;;
63320;SDS011;49449;48.800;9.534;2023-10-19T07:51:03;8.82;;;7.93;;
63320;SDS011;49449;48.800;9.534;2023-10-19T07:53:30;10.55;;;8.48;;
63320;SDS011;49449;48.800;9.534;2023-10-19T07:55:58;10.35;;;9.35;;
63320;SDS011;49449;48.800;9.534;2023-10-19T07:58:26;10.57;;;8.73;;
63320;SDS011;49449;48.800;9.534;2023-10-19T08:00:54;9.35;;;8.15;;
63320;SDS011;49449;48.800;9.534;2023-10-19T08:03:24;9.93;;;8.55;;
63320;SDS011;49449;48.800;9.534;2023-10-19T08:05:52;10.18;;;8.30;;
63320;SDS011;49449;48.800;9.534;2023-10-19T08:08:20;10.23;;;7.63;;
63320;SDS011;49449;48.800;9.534;2023-10-19T08:10:50;12.07;;;8.55;;
63320;SDS011;49449;48.800;9.534;2023-10-19T08:13:18;10.80;;;7.82;;
63320;SDS011;49449;48.800;9.534;2023-10-19T08:15:46;9.35;;;6.90;;
63320;SDS011;49449;48.800;9.534;2023-10-19T08:18:14;7.85;;;7.00;;
63320;SDS011;49449;48.800;9.534;2023-10-19T08:20:43;9.55;;;7.18;;
63320;SDS011;49449;48.800;9.534;2023-10-19T08:23:12;8.27;;;7.20;;
63320;SDS011;49449;48.800;9.534;2023-10-19T08:25:42;7.40;;;6.63;;
63320;SDS011;49449;48.800;9.534;2023-10-19T08:28:20;7.30;;;6.35;;
63320;SDS011;49449;48.800;9.534;2023-10-19T08:30:48;7.43;;;6.68;;
63320;SDS011;49449;48.800;9.534;2023-10-19T08:33:24;7.80;;;6.80;;
63320;SDS011;49449;48.800;9.534;2023-10-19T08:35:54;9.85;;;7.70;;
63320;SDS011;49449;48.800;9.534;2023-10-19T08:38:23;8.85;;;6.80;;
63320;SDS011;49449;48.800;9.534;2023-10-19T08:40:51;8.15;;;6.90;;
63320;SDS011;49449;48.800;9.534;2023-10-19T08:43:19;8.55;;;7.15;;
63320;SDS011;49449;48.800;9.534;2023-10-19T08:45:48;9.40;;;6.90;;
63320;SDS011;49449;48.800;9.534;2023-10-19T08:48:15;8.85;;;7.55;;
63320;SDS011;49449;48.800;9.534;2023-10-19T08:50:44;9.82;;;7.80;;
63320;SDS011;49449;48.800;9.534;2023-10-19T08:53:15;7.78;;;6.82;;
63320;SDS011;49449;48.800;9.534;2023-10-19T08:55:45;8.20;;;7.20;;
63320;SDS011;49449;48.800;9.534;2023-10-19T08:58:16;8.88;;;7.82;;
63320;SDS011;49449;48.800;9.534;2023-10-19T09:00:45;8.85;;;7.20;;
63320;SDS011;49449;48.800;9.534;2023-10-19T09:03:15;9.07;;;7.72;;
63320;SDS011;49449;48.800;9.534;2023-10-19T09:05:44;7.35;;;6.63;;
63320;SDS011;49449;48.800;9.534;2023-10-19T09:08:13;7.75;;;6.88;;
63320;SDS011;49449;48.800;9.534;2023-10-19T09:10:44;9.40;;;7.15;;
63320;SDS011;49449;48.800;9.534;2023-10-19T09:13:13;8.32;;;7.07;;
63320;SDS011;49449;48.800;9.534;2023-10-19T09:15:44;8.10;;;7.07;;
63320;SDS011;49449;48.800;9.534;2023-10-19T09:18:12;7.18;;;6.18;;
63320;SDS011;49449;48.800;9.534;2023-10-19T09:20:41;7.80;;;6.88;;
63320;SDS011;49449;48.800;9.534;2023-10-19T09:23:23;7.65;;;6.35;;
63320;SDS011;49449;48.800;9.534;2023-10-19T09:25:55;9.68;;;6.10;;
63320;SDS011;49449;48.800;9.534;2023-10-19T09:28:24;7.03;;;5.88;;
63320;SDS011;49449;48.800;9.534;2023-10-19T09:30:52;6.95;;;6.10;;
63320;SDS011;49449;48.800;9.534;2023-10-19T09:33:21;8.07;;;6.00;;
63320;SDS011;49449;48.800;9.534;2023-10-19T09:35:50;6.78;;;5.78;;
63320;SDS011;49449;48.800;9.534;2023-10-19T09:38:23;6.93;;;5.70;;
63320;SDS011;49449;48.800;9.534;2023-10-19T09:40:53;6.80;;;6.10;;
63320;SDS011;49449;48.800;9.534;2023-10-19T09:43:22;6.40;;;5.60;;
63320;SDS011;49449;48.800;9.534;2023-10-19T09:45:59;7.13;;;5.70;;
63320;SDS011;49449;48.800;9.534;2023-10-19T09:48:29;7.63;;;6.10;;
63320;SDS011;49449;48.800;9.534;2023-10-19T09:51:02;6.93;;;5.75;;
63320;SDS011;49449;48.800;9.534;2023-10-19T09:53:32;7.35;;;5.97;;
63320;SDS011;49449;48.800;9.534;2023-10-19T09:56:00;7.18;;;6.45;;
63320;SDS011;49449;48.800;9.534;2023-10-19T09:58:38;8.10;;;6.95;;
63320;SDS011;49449;48.800;9.534;2023-10-19T10:01:11;8.20;;;7.07;;
63320;SDS011;49449;48.800;9.534;2023-10-19T10:03:46;7.57;;;6.80;;
63320;SDS011;49449;48.800;9.534;2023-10-19T10:06:15;7.13;;;6.20;;
63320;SDS011;49449;48.800;9.534;2023-10-19T10:08:48;6.43;;;5.72;;
63320;SDS011;49449;48.800;9.534;2023-10-19T10:11:17;7.28;;;6.05;;
63320;SDS011;49449;48.800;9.534;2023-10-19T10:13:48;7.07;;;6.38;;
63320;SDS011;49449;48.800;9.534;2023-10-19T10:16:18;8.82;;;6.32;;
63320;SDS011;49449;48.800;9.534;2023-10-19T10:18:47;7.35;;;5.65;;
63320;SDS011;49449;48.800;9.534;2023-10-19T10:21:17;7.38;;;6.25;;
63320;SDS011;49449;48.800;9.534;2023-10-19T10:23:49;8.13;;;5.88;;
63320;SDS011;49449;48.800;9.534;2023-10-19T10:26:20;6.90;;;6.18;;
63320;SDS011;49449;48.800;9.534;2023-10-19T10:29:13;6.82;;;6.13;;
63320;SDS011;49449;48.800;9.534;2023-10-19T10:31:46;6.43;;;5.53;;
63320;SDS011;49449;48.800;9.534;2023-10-19T10:37:10;7.53;;;6.57;;
63320;SDS011;49449;48.800;9.534;2023-10-19T10:39:42;7.78;;;6.40;;
63320;SDS011;49449;48.800;9.534;2023-10-19T10:42:11;7.10;;;6.40;;
63320;SDS011;49449;48.800;9.534;2023-10-19T10:44:40;7.95;;;5.30;;
63320;SDS011;49449;48.800;9.534;2023-10-19T10:47:09;9.52;;;6.97;;
63320;SDS011;49449;48.800;9.534;2023-10-19T10:49:49;8.05;;;6.55;;
63320;SDS011;49449;48.800;9.534;2023-10-19T10:52:28;7.38;;;6.18;;
63320;SDS011;49449;48.800;9.534;2023-10-19T10:55:05;7.00;;;5.72;;
63320;SDS011;49449;48.800;9.534;2023-10-19T10:57:37;6.65;;;5.68;;
63320;SDS011;49449;48.800;9.534;2023-10-19T11:00:06;6.68;;;5.43;;
63320;SDS011;49449;48.800;9.534;2023-10-19T11:02:36;5.45;;;4.75;;
63320;SDS011;49449;48.800;9.534;2023-10-19T11:05:09;6.05;;;5.07;;
63320;SDS011;49449;48.800;9.534;2023-10-19T11:07:39;8.10;;;6.50;;
63320;SDS011;49449;48.800;9.534;2023-10-19T11:10:08;7.25;;;6.05;;
63320;SDS011;49449;48.800;9.534;2023-10-19T11:12:37;7.18;;;6.05;;
63320;SDS011;49449;48.800;9.534;2023-10-19T11:15:05;8.13;;;6.88;;
63320;SDS011;49449;48.800;9.534;2023-10-19T11:17:42;7.20;;;5.68;;
63320;SDS011;49449;48.800;9.534;2023-10-19T11:20:20;7.28;;;5.90;;
63320;SDS011;49449;48.800;9.534;2023-10-19T11:22:48;6.32;;;5.43;;
63320;SDS011;49449;48.800;9.534;2023-10-19T11:25:19;7.53;;;5.70;;
63320;SDS011;49449;48.800;9.534;2023-10-19T11:27:47;6.72;;;5.57;;
63320;SDS011;49449;48.800;9.534;2023-10-19T11:30:22;7.65;;;6.07;;
63320;SDS011;49449;48.800;9.534;2023-10-19T11:32:50;7.72;;;5.88;;
63320;SDS011;49449;48.800;9.534;2023-10-19T11:35:26;6.82;;;6.07;;
63320;SDS011;49449;48.800;9.534;2023-10-19T11:37:56;6.57;;;5.47;;
63320;SDS011;49449;48.800;9.534;2023-10-19T11:40:27;7.72;;;5.65;;
63320;SDS011;49449;48.800;9.534;2023-10-19T11:42:55;6.43;;;5.70;;
63320;SDS011;49449;48.800;9.534;2023-10-19T11:45:25;7.75;;;6.05;;
63320;SDS011;49449;48.800;9.534;2023-10-19T11:47:52;7.38;;;5.75;;
63320;SDS011;49449;48.800;9.534;2023-10-19T11:50:20;7.25;;;5.65;;
63320;SDS011;49449;48.800;9.534;2023-10-19T11:52:48;7.55;;;5.60;;
63320;SDS011;49449;48.800;9.534;2023-10-19T11:55:16;7.47;;;6.53;;
63320;SDS011;49449;48.800;9.534;2023-10-19T11:57:45;7.05;;;5.82;;
63320;SDS011;49449;48.800;9.534;2023-10-19T12:00:13;9.35;;;6.68;;
63320;SDS011;49449;48.800;9.534;2023-10-19T12:02:48;12.07;;;8.95;;
63320;SDS011;49449;48.800;9.534;2023-10-19T12:05:16;9.88;;;8.23;;
63320;SDS011;49449;48.800;9.534;2023-10-19T12:07:43;8.75;;;6.45;;
63320;SDS011;49449;48.800;9.534;2023-10-19T12:10:12;7.75;;;6.82;;
63320;SDS011;49449;48.800;9.534;2023-10-19T12:12:39;9.27;;;7.93;;
63320;SDS011;49449;48.800;9.534;2023-10-19T12:15:17;12.10;;;9.10;;
63320;SDS011;49449;48.800;9.534;2023-10-19T12:17:45;9.48;;;8.20;;
63320;SDS011;49449;48.800;9.534;2023-10-19T12:20:13;8.45;;;7.35;;
63320;SDS011;49449;48.800;9.534;2023-10-19T12:22:41;7.35;;;6.28;;
63320;SDS011;49449;48.800;9.534;2023-10-19T12:25:09;8.48;;;7.47;;
63320;SDS011;49449;48.800;9.534;2023-10-19T12:27:37;8.80;;;7.70;;
63320;SDS011;49449;48.800;9.534;2023-10-19T12:30:05;9.70;;;8.70;;
63320;SDS011;49449;48.800;9.534;2023-10-19T12:32:44;8.77;;;7.72;;
63320;SDS011;49449;48.800;9.534;2023-10-19T12:35:15;10.98;;;7.15;;
63320;SDS011;49449;48.800;9.534;2023-10-19T12:37:46;8.60;;;6.70;;
63320;SDS011;49449;48.800;9.534;2023-10-19T12:40:17;7.93;;;6.47;;
63320;SDS011;49449;48.800;9.534;2023-10-19T12:42:54;7.32;;;6.20;;
63320;SDS011;49449;48.800;9.534;2023-10-19T12:45:24;7.45;;;6.57;;
63320;SDS011;49449;48.800;9.534;2023-10-19T12:47:53;8.25;;;6.55;;
63320;SDS011;49449;48.800;9.534;2023-10-19T12:50:21;5.70;;;4.82;;
63320;SDS011;49449;48.800;9.534;2023-10-19T12:52:50;7.00;;;5.50;;
63320;SDS011;49449;48.800;9.534;2023-10-19T12:55:18;4.40;;;3.88;;
63320;SDS011;49449;48.800;9.534;2023-10-19T12:57:46;4.38;;;3.92;;
63320;SDS011;49449;48.800;9.534;2023-10-19T13:00:14;3.38;;;3.08;;
63320;SDS011;49449;48.800;9.534;2023-10-19T13:02:53;3.20;;;2.85;;
63320;SDS011;49449;48.800;9.534;2023-10-19T13:05:26;4.13;;;3.67;;
63320;SDS011;49449;48.800;9.534;2023-10-19T13:10:28;5.20;;;3.40;;
63320;SDS011;49449;48.800;9.534;2023-10-19T13:13:01;3.85;;;3.38;;
63320;SDS011;49449;48.800;9.534;2023-10-19T13:15:31;4.63;;;3.67;;
63320;SDS011;49449;48.800;9.534;2023-10-19T13:18:02;5.53;;;4.32;;
63320;SDS011;49449;48.800;9.534;2023-10-19T13:20:32;4.13;;;3.72;;
63320;SDS011;49449;48.800;9.534;2023-10-19T13:23:01;4.65;;;4.25;;
63320;SDS011;49449;48.800;9.534;2023-10-19T13:25:30;3.63;;;3.33;;
63320;SDS011;49449;48.800;9.534;2023-10-19T13:28:13;3.53;;;3.22;;
63320;SDS011;49449;48.800;9.534;2023-10-19T13:30:42;3.30;;;2.95;;
63320;SDS011;49449;48.800;9.534;2023-10-19T13:33:15;4.00;;;3.63;;
63320;SDS011;49449;48.800;9.534;2023-10-19T13:35:44;4.00;;;3.53;;
63320;SDS011;49449;48.800;9.534;2023-10-19T13:38:12;4.40;;;3.38;;
63320;SDS011;49449;48.800;9.534;2023-10-19T13:40:41;3.88;;;3.45;;
63320;SDS011;49449;48.800;9.534;2023-10-19T13:43:10;5.13;;;3.30;;
63320;SDS011;49449;48.800;9.534;2023-10-19T13:45:40;4.45;;;3.97;;
63320;SDS011;49449;48.800;9.534;2023-10-19T13:48:09;3.83;;;3.42;;
63320;SDS011;49449;48.800;9.534;2023-10-19T13:50:42;4.13;;;3.17;;
63320;SDS011;49449;48.800;9.534;2023-10-19T13:53:12;3.65;;;3.25;;
63320;SDS011;49449;48.800;9.534;2023-10-19T13:55:40;3.58;;;3.25;;
63320;SDS011;49449;48.800;9.534;2023-10-19T13:58:08;3.65;;;3.30;;
63320;SDS011;49449;48.800;9.534;2023-10-19T14:00:37;3.45;;;3.15;;
63320;SDS011;49449;48.800;9.534;2023-10-19T14:03:07;3.40;;;3.10;;
63320;SDS011;49449;48.800;9.534;2023-10-19T14:05:37;3.72;;;3.30;;
63320;SDS011;49449;48.800;9.534;2023-10-19T14:08:07;3.97;;;3.55;;
63320;SDS011;49449;48.800;9.534;2023-10-19T14:10:35;4.65;;;3.47;;
63320;SDS011;49449;48.800;9.534;2023-10-19T14:13:03;4.07;;;3.50;;
63320;SDS011;49449;48.800;9.534;2023-10-19T14:15:32;3.85;;;3.30;;
63320;SDS011;49449;48.800;9.534;2023-10-19T14:18:01;3.70;;;3.40;;
63320;SDS011;49449;48.800;9.534;2023-10-19T14:20:29;4.82;;;4.03;;
63320;SDS011;49449;48.800;9.534;2023-10-19T14:23:00;4.18;;;3.78;;
63320;SDS011;49449;48.800;9.534;2023-10-19T14:25:30;4.38;;;3.97;;
63320;SDS011;49449;48.800;9.534;2023-10-19T14:27:58;6.25;;;4.47;;
63320;SDS011;49449;48.800;9.534;2023-10-19T14:30:26;4.55;;;4.10;;
63320;SDS011;49449;48.800;9.534;2023-10-19T14:32:55;5.65;;;4.40;;
63320;SDS011;49449;48.800;9.534;2023-10-19T14:35:23;4.72;;;4.22;;
63320;SDS011;49449;48.800;9.534;2023-10-19T14:37:53;6.03;;;4.40;;
63320;SDS011;49449;48.800;9.534;2023-10-19T14:40:22;4.50;;;4.10;;
63320;SDS011;49449;48.800;9.534;2023-10-19T14:42:52;5.25;;;3.95;;
63320;SDS011;49449;48.800;9.534;2023-10-19T14:45:21;5.15;;;4.65;;
63320;SDS011;49449;48.800;9.534;2023-10-19T14:47:52;5.82;;;4.43;;
63320;SDS011;49449;48.800;9.534;2023-10-19T14:50:22;5.18;;;4.68;;
63320;SDS011;49449;48.800;9.534;2023-10-19T14:52:50;5.60;;;5.10;;
63320;SDS011;49449;48.800;9.534;2023-10-19T14:55:19;5.40;;;4.90;;
63320;SDS011;49449;48.800;9.534;2023-10-19T14:57:48;5.53;;;4.75;;
63320;SDS011;49449;48.800;9.534;2023-10-19T15:00:21;4.55;;;4.00;;
63320;SDS011;49449;48.800;9.534;2023-10-19T15:03:00;4.80;;;4.22;;
63320;SDS011;49449;48.800;9.534;2023-10-19T15:05:33;5.03;;;4.50;;
63320;SDS011;49449;48.800;9.534;2023-10-19T15:08:02;7.95;;;5.10;;
63320;SDS011;49449;48.800;9.534;2023-10-19T15:10:33;5.72;;;5.22;;